createdAt,value
2022-12-11T00:01:14.931Z,11.93
2022-12-11T00:03:44.430Z,10.97
2022-12-11T00:06:14.816Z,11.13
2022-12-11T00:08:45.192Z,10.70
2022-12-11T00:11:14.820Z,10.73
2022-12-11T00:13:43.855Z,12.10
2022-12-11T00:16:12.894Z,10.67
2022-12-11T00:18:41.597Z,11.50
2022-12-11T00:21:13.337Z,10.23
2022-12-11T00:23:42.339Z,9.70
2022-12-11T00:26:15.620Z,10.10
2022-12-11T00:28:44.777Z,11.27
2022-12-11T00:31:15.194Z,11.20
2022-12-11T00:33:44.388Z,12.33
2022-12-11T00:36:14.122Z,10.70
2022-12-11T00:38:43.509Z,12.27
2022-12-11T00:41:13.932Z,11.33
2022-12-11T00:43:42.650Z,11.80
2022-12-11T00:46:11.656Z,11.33
2022-12-11T00:48:40.372Z,12.20
2022-12-11T00:51:09.087Z,10.80
2022-12-11T00:53:38.236Z,11.27
2022-12-11T00:56:14.028Z,11.20
2022-12-11T00:58:42.789Z,10.17
2022-12-11T01:01:12.876Z,12.40
2022-12-11T01:03:41.805Z,10.70
2022-12-11T01:06:14.648Z,10.37
2022-12-11T01:08:43.343Z,11.20
2022-12-11T01:11:13.566Z,11.40
2022-12-11T01:13:42.803Z,11.97
2022-12-11T01:16:13.937Z,10.17
2022-12-11T01:18:43.052Z,11.40
2022-12-11T01:21:13.392Z,12.23
2022-12-11T01:23:41.997Z,11.70
2022-12-11T01:26:13.694Z,11.67
2022-12-11T01:28:43.011Z,11.10
2022-12-11T01:31:12.894Z,11.70
2022-12-11T01:33:42.170Z,10.57
2022-12-11T01:36:12.216Z,11.00
2022-12-11T01:38:41.032Z,10.97
2022-12-11T01:41:10.556Z,13.47
2022-12-11T01:43:58.766Z,11.80
2022-12-11T01:46:28.174Z,11.33
2022-12-11T01:48:57.017Z,11.93
2022-12-11T01:51:26.094Z,12.00
2022-12-11T01:53:56.776Z,10.93
2022-12-11T01:56:25.888Z,11.87
2022-12-11T01:59:00.101Z,11.63
2022-12-11T02:01:33.983Z,11.80
2022-12-11T02:04:03.105Z,11.67
2022-12-11T02:06:37.266Z,12.43
2022-12-11T02:09:07.545Z,11.17
2022-12-11T02:11:41.591Z,11.70
2022-12-11T02:14:16.013Z,11.53
2022-12-11T02:16:47.782Z,11.33
2022-12-11T02:19:34.695Z,13.67
2022-12-11T02:22:07.226Z,11.40
2022-12-11T02:24:48.359Z,11.30
2022-12-11T02:27:24.712Z,11.63
2022-12-11T02:29:56.803Z,11.50
2022-12-11T02:32:27.679Z,10.80
2022-12-11T02:35:00.251Z,12.57
2022-12-11T02:37:30.854Z,10.40
2022-12-11T02:39:59.460Z,10.87
2022-12-11T02:42:31.078Z,11.30
2022-12-11T02:45:02.716Z,12.03
2022-12-11T02:47:32.389Z,11.43
2022-12-11T02:50:04.919Z,12.40
2022-12-11T02:52:33.968Z,10.77
2022-12-11T02:55:03.841Z,11.60
2022-12-11T02:57:35.988Z,10.90
2022-12-11T03:00:07.891Z,10.40
2022-12-11T03:02:37.463Z,10.87
2022-12-11T03:05:06.829Z,11.40
2022-12-11T03:07:38.180Z,11.70
2022-12-11T03:10:08.741Z,10.50
2022-12-11T03:12:39.732Z,10.80
2022-12-11T03:15:13.653Z,10.93
2022-12-11T03:17:48.592Z,11.70
2022-12-11T03:20:22.727Z,11.97
2022-12-11T03:22:56.281Z,10.80
2022-12-11T03:25:28.549Z,10.73
2022-12-11T03:27:59.230Z,11.20
2022-12-11T03:30:30.345Z,10.17
2022-12-11T03:33:05.625Z,11.10
2022-12-11T03:35:36.846Z,10.80
2022-12-11T03:38:09.837Z,10.20
2022-12-11T03:40:39.992Z,11.33
2022-12-11T03:43:08.836Z,9.63
2022-12-11T03:45:40.357Z,11.00
2022-12-11T03:48:10.085Z,9.93
2022-12-11T03:50:41.608Z,10.47
2022-12-11T03:53:11.015Z,10.00
2022-12-11T03:55:40.779Z,10.10
2022-12-11T03:58:09.463Z,9.60
2022-12-11T04:00:39.632Z,9.57
2022-12-11T04:03:14.894Z,9.97
2022-12-11T04:05:45.491Z,9.50
2022-12-11T04:08:14.405Z,9.67
2022-12-11T04:10:43.280Z,8.67
2022-12-11T04:13:12.025Z,8.50
2022-12-11T04:15:41.134Z,9.50
2022-12-11T04:18:28.106Z,8.30
2022-12-11T04:21:11.505Z,8.87
2022-12-11T04:23:57.828Z,9.87
2022-12-11T04:26:26.669Z,10.17
2022-12-11T04:28:55.529Z,10.60
2022-12-11T04:31:25.501Z,9.20
2022-12-11T04:33:54.118Z,10.33
2022-12-11T04:36:22.869Z,9.80
2022-12-11T04:38:51.453Z,9.60
2022-12-11T04:41:20.084Z,9.17
2022-12-11T04:43:48.681Z,9.43
2022-12-11T04:46:18.837Z,9.57
2022-12-11T04:48:55.379Z,10.00
2022-12-11T04:51:26.236Z,9.60
2022-12-11T04:53:55.089Z,9.97
2022-12-11T04:56:23.939Z,9.83
2022-12-11T04:58:52.551Z,9.10
2022-12-11T05:01:23.086Z,8.33
2022-12-11T05:03:53.160Z,9.47
2022-12-11T05:06:21.826Z,10.27
2022-12-11T05:08:50.392Z,10.37
2022-12-11T05:11:19.027Z,9.43
2022-12-11T05:13:47.895Z,9.67
2022-12-11T05:16:17.636Z,8.47
2022-12-11T05:18:47.321Z,8.43
2022-12-11T05:21:17.313Z,8.47
2022-12-11T05:23:45.873Z,8.70
2022-12-11T05:26:16.975Z,7.87
2022-12-11T05:28:46.315Z,8.30
2022-12-11T05:31:18.216Z,8.37
2022-12-11T05:33:47.730Z,8.10
2022-12-11T05:36:20.182Z,8.40
2022-12-11T05:38:49.436Z,7.50
2022-12-11T05:41:19.467Z,7.90
2022-12-11T05:43:48.412Z,7.73
2022-12-11T05:46:19.141Z,8.20
2022-12-11T05:48:49.008Z,7.63
2022-12-11T05:51:20.179Z,8.00
2022-12-11T05:53:50.183Z,7.33
2022-12-11T05:56:20.726Z,8.30
2022-12-11T05:58:49.965Z,8.40
2022-12-11T06:01:20.680Z,9.13
2022-12-11T06:03:49.464Z,7.50
2022-12-11T06:06:19.431Z,8.13
2022-12-11T06:08:50.728Z,7.50
2022-12-11T06:11:23.739Z,8.10
2022-12-11T06:13:53.197Z,8.60
2022-12-11T06:16:22.844Z,7.93
2022-12-11T06:18:52.931Z,8.60
2022-12-11T06:21:27.519Z,7.73
2022-12-11T06:23:58.155Z,7.37
2022-12-11T06:26:27.203Z,7.93
2022-12-11T06:28:55.855Z,8.03
2022-12-11T06:31:24.825Z,8.10
2022-12-11T06:33:54.195Z,8.60
2022-12-11T06:36:24.986Z,8.13
2022-12-11T06:38:54.196Z,7.97
2022-12-11T06:41:22.835Z,8.10
2022-12-11T06:43:51.726Z,8.33
2022-12-11T06:46:21.034Z,6.70
2022-12-11T06:48:50.190Z,8.40
2022-12-11T06:51:20.372Z,8.30
2022-12-11T06:53:53.941Z,8.23
2022-12-11T06:56:23.186Z,7.23
2022-12-11T06:58:52.007Z,8.57
2022-12-11T07:01:22.772Z,8.83
2022-12-11T07:03:53.846Z,8.63
2022-12-11T07:06:22.704Z,8.97
2022-12-11T07:08:52.739Z,8.03
2022-12-11T07:11:21.953Z,8.43
2022-12-11T07:13:50.963Z,8.57
2022-12-11T07:16:20.110Z,9.63
2022-12-11T07:18:50.404Z,8.60
2022-12-11T07:21:20.092Z,8.83
2022-12-11T07:23:48.936Z,9.13
2022-12-11T07:26:21.975Z,9.27
2022-12-11T07:28:50.724Z,8.37
2022-12-11T07:31:21.752Z,9.27
2022-12-11T07:33:54.890Z,8.73
2022-12-11T07:36:24.320Z,8.43
2022-12-11T07:38:53.063Z,8.53
2022-12-11T07:41:24.080Z,8.83
2022-12-11T07:43:52.668Z,9.23
2022-12-11T07:46:23.438Z,8.90
2022-12-11T07:48:52.207Z,8.57
2022-12-11T07:51:24.994Z,9.40
2022-12-11T07:53:54.630Z,8.63
2022-12-11T07:56:24.821Z,8.37
2022-12-11T07:58:53.777Z,9.20
2022-12-11T08:01:24.089Z,8.50
2022-12-11T08:03:53.463Z,8.60
2022-12-11T08:06:26.981Z,9.33
2022-12-11T08:08:55.670Z,8.60
2022-12-11T08:11:26.480Z,9.63
2022-12-11T08:13:55.495Z,8.67
2022-12-11T08:16:24.256Z,9.30
2022-12-11T08:18:53.039Z,9.20
2022-12-11T08:21:23.227Z,9.60
2022-12-11T08:23:53.163Z,9.33
2022-12-11T08:26:25.970Z,9.57
2022-12-11T08:28:55.170Z,9.43
2022-12-11T08:31:23.848Z,8.43
2022-12-11T08:33:53.425Z,10.23
2022-12-11T08:36:22.907Z,9.37
2022-12-11T08:38:52.055Z,9.87
2022-12-11T08:41:21.946Z,8.73
2022-12-11T08:43:54.833Z,8.87
2022-12-11T08:46:24.803Z,8.60
2022-12-11T08:48:53.950Z,9.90
2022-12-11T08:51:25.935Z,9.47
2022-12-11T08:53:56.041Z,9.70
2022-12-11T08:56:24.861Z,9.50
2022-12-11T08:58:54.982Z,9.90
2022-12-11T09:01:24.794Z,9.23
2022-12-11T09:03:54.857Z,10.47
2022-12-11T09:06:25.877Z,11.40
2022-12-11T09:08:55.993Z,9.33
2022-12-11T09:11:26.674Z,9.67
2022-12-11T09:13:58.168Z,9.97
2022-12-11T09:16:28.962Z,10.50
2022-12-11T09:18:59.023Z,11.00
2022-12-11T09:21:29.490Z,10.13
2022-12-11T09:24:02.162Z,10.10
2022-12-11T09:26:31.197Z,10.80
2022-12-11T09:29:03.881Z,11.40
2022-12-11T09:31:33.928Z,10.80
2022-12-11T09:34:05.374Z,9.30
2022-12-11T09:36:34.277Z,11.50
2022-12-11T09:39:04.967Z,11.87
2022-12-11T09:41:38.536Z,11.27
2022-12-11T09:44:21.895Z,12.57
2022-12-11T09:46:51.823Z,10.33
2022-12-11T09:49:28.506Z,10.40
2022-12-11T09:52:18.890Z,11.30
2022-12-11T09:54:51.476Z,11.00
2022-12-11T09:57:28.535Z,10.90
2022-12-11T10:00:19.205Z,10.77
2022-12-11T10:03:01.998Z,11.30
2022-12-11T10:05:35.466Z,11.57
2022-12-11T10:08:07.941Z,11.90
2022-12-11T10:10:42.944Z,12.20
2022-12-11T10:13:18.199Z,11.77
2022-12-11T10:15:53.018Z,11.23
2022-12-11T10:18:24.382Z,11.33
2022-12-11T10:20:54.253Z,12.80
2022-12-11T10:23:26.238Z,10.87
2022-12-11T10:25:57.113Z,10.80
2022-12-11T10:28:28.686Z,10.47
2022-12-11T10:31:05.992Z,10.73
2022-12-11T10:33:42.839Z,11.40
2022-12-11T10:36:11.944Z,11.03
2022-12-11T10:38:44.071Z,11.07
2022-12-11T10:41:13.898Z,11.60
2022-12-11T10:43:44.452Z,11.20
2022-12-11T10:46:18.513Z,10.83
2022-12-11T10:48:48.212Z,10.20
2022-12-11T10:51:17.066Z,10.33
2022-12-11T10:53:51.191Z,11.10
2022-12-11T10:56:26.450Z,11.10
2022-12-11T10:58:56.218Z,10.53
2022-12-11T11:01:28.435Z,10.83
2022-12-11T11:04:01.270Z,10.73
2022-12-11T11:06:29.958Z,12.10
2022-12-11T11:09:00.338Z,10.90
2022-12-11T11:11:33.831Z,10.93
2022-12-11T11:14:08.151Z,10.50
2022-12-11T11:16:39.802Z,10.93
2022-12-11T11:19:08.601Z,11.23
2022-12-11T11:21:37.318Z,10.47
2022-12-11T11:24:06.137Z,10.47
2022-12-11T11:27:04.724Z,11.27
2022-12-11T11:29:28.097Z,11.70
2022-12-11T11:31:58.340Z,11.13
2022-12-11T11:34:30.825Z,11.43
2022-12-11T11:37:05.551Z,11.63
2022-12-11T11:39:37.179Z,10.50
2022-12-11T11:42:11.750Z,10.30
2022-12-11T11:44:43.426Z,12.10
2022-12-11T11:47:17.794Z,11.37
2022-12-11T11:49:52.063Z,10.70
2022-12-11T11:52:26.046Z,12.17
2022-12-11T11:55:00.800Z,11.00
2022-12-11T11:57:34.961Z,10.67
2022-12-11T12:00:10.718Z,10.73
2022-12-11T12:02:42.253Z,10.50
2022-12-11T12:05:13.984Z,10.27
2022-12-11T12:07:47.935Z,10.50
2022-12-11T12:10:23.578Z,11.40
2022-12-11T12:12:57.496Z,9.70
2022-12-11T12:15:33.678Z,10.47
2022-12-11T12:18:12.808Z,10.70
2022-12-11T12:20:45.367Z,10.50
2022-12-11T12:23:28.770Z,10.13
2022-12-11T12:26:05.295Z,10.20
2022-12-11T12:28:40.746Z,9.47
2022-12-11T12:31:18.594Z,9.30
2022-12-11T12:33:55.641Z,9.27
2022-12-11T12:36:29.000Z,9.37
2022-12-11T12:39:02.413Z,9.83
2022-12-11T12:41:41.635Z,10.00
2022-12-11T12:44:15.113Z,9.80
2022-12-11T12:46:51.688Z,9.63
2022-12-11T12:49:29.531Z,9.80
2022-12-11T12:51:58.957Z,9.70
2022-12-11T12:54:28.700Z,10.40
2022-12-11T12:56:57.772Z,10.03
2022-12-11T12:59:28.708Z,10.30
2022-12-11T13:01:59.577Z,10.53
2022-12-11T13:04:55.554Z,9.90
2022-12-11T13:07:29.736Z,10.23
2022-12-11T13:10:06.121Z,10.70
2022-12-11T13:12:43.301Z,10.00
2022-12-11T13:15:25.776Z,10.63
2022-12-11T13:17:54.459Z,9.70
2022-12-11T13:20:26.662Z,10.77
2022-12-11T13:22:58.165Z,11.27
2022-12-11T13:25:31.225Z,11.50
2022-12-11T13:28:07.557Z,9.70
2022-12-11T13:30:36.202Z,10.70
2022-12-11T13:33:07.467Z,10.40
2022-12-11T13:35:37.431Z,11.23
2022-12-11T13:38:08.188Z,9.97
2022-12-11T13:40:41.130Z,10.63
2022-12-11T13:43:18.207Z,10.37
2022-12-11T13:45:50.029Z,11.43
2022-12-11T13:48:23.323Z,10.70
2022-12-11T13:50:54.683Z,10.33
2022-12-11T13:53:23.944Z,10.00
2022-12-11T13:55:59.162Z,10.33
2022-12-11T13:58:28.719Z,10.60
2022-12-11T14:01:06.040Z,10.97
2022-12-11T14:03:35.002Z,10.87
2022-12-11T14:06:05.186Z,10.80
2022-12-11T14:08:35.630Z,11.53
2022-12-11T14:11:04.480Z,11.20
2022-12-11T14:13:35.235Z,10.77
2022-12-11T14:16:04.273Z,10.33
2022-12-11T14:18:34.533Z,11.43
2022-12-11T14:21:06.507Z,11.37
2022-12-11T14:23:36.332Z,10.60
2022-12-11T14:26:16.485Z,10.87
2022-12-11T14:28:45.151Z,11.43
2022-12-11T14:31:16.442Z,13.20
2022-12-11T14:33:47.714Z,11.03
2022-12-11T14:36:17.924Z,10.80
2022-12-11T14:38:48.467Z,11.20
2022-12-11T14:41:20.925Z,11.30
2022-12-11T14:43:51.920Z,11.20
2022-12-11T14:46:23.683Z,12.10
2022-12-11T14:49:00.594Z,12.40
2022-12-11T14:51:35.906Z,13.03
2022-12-11T14:54:05.558Z,12.80
2022-12-11T14:56:34.804Z,13.50
2022-12-11T14:59:05.397Z,13.50
2022-12-11T15:01:35.143Z,13.13
2022-12-11T15:04:08.879Z,13.40
2022-12-11T15:06:46.018Z,13.37
2022-12-11T15:09:19.856Z,13.77
2022-12-11T15:11:50.136Z,13.90
2022-12-11T15:14:20.266Z,14.20
2022-12-11T15:16:49.562Z,15.33
2022-12-11T15:19:21.995Z,15.03
2022-12-11T15:21:52.353Z,14.63
2022-12-11T15:24:27.241Z,13.87
2022-12-11T15:26:59.426Z,14.43
2022-12-11T15:29:34.427Z,16.30
2022-12-11T15:32:05.828Z,14.47
2022-12-11T15:34:35.707Z,15.27
2022-12-11T15:37:05.709Z,14.40
2022-12-11T15:39:34.340Z,15.20
2022-12-11T15:42:08.023Z,14.30
2022-12-11T15:44:36.648Z,13.80
2022-12-11T15:47:13.154Z,14.90
2022-12-11T15:49:41.852Z,13.67
2022-12-11T15:52:11.848Z,13.13
2022-12-11T15:54:40.449Z,13.60
2022-12-11T15:57:14.063Z,13.13
2022-12-11T15:59:42.655Z,13.93
2022-12-11T16:02:12.523Z,13.47
2022-12-11T16:04:41.491Z,15.00
2022-12-11T16:07:17.637Z,15.43
2022-12-11T16:09:46.393Z,14.70
2022-12-11T16:12:15.003Z,15.73
2022-12-11T16:14:44.087Z,17.50
2022-12-11T16:17:14.532Z,15.40
2022-12-11T16:19:44.042Z,17.07
2022-12-11T16:22:14.753Z,14.90
2022-12-11T16:24:43.789Z,15.30
2022-12-11T16:27:12.532Z,15.23
2022-12-11T16:29:42.563Z,16.17
2022-12-11T16:32:11.426Z,15.47
2022-12-11T16:34:40.193Z,15.60
2022-12-11T16:37:09.696Z,16.10
2022-12-11T16:39:42.482Z,16.70
2022-12-11T16:42:11.088Z,17.13
2022-12-11T16:44:44.043Z,14.63
2022-12-11T16:47:13.053Z,16.23
2022-12-11T16:49:42.885Z,17.00
2022-12-11T16:52:11.708Z,17.87
2022-12-11T16:54:41.693Z,16.53
2022-12-11T16:57:10.368Z,17.87
2022-12-11T16:59:39.098Z,16.90
2022-12-11T17:02:07.836Z,16.23
2022-12-11T17:04:36.547Z,18.13
2022-12-11T17:07:05.291Z,17.50
2022-12-11T17:09:34.500Z,16.87
2022-12-11T17:12:04.913Z,17.90
2022-12-11T17:14:33.589Z,16.47
2022-12-11T17:17:02.217Z,16.90
2022-12-11T17:19:30.820Z,17.37
2022-12-11T17:21:59.515Z,17.50
2022-12-11T17:24:28.516Z,16.87
2022-12-11T17:26:57.215Z,19.20
2022-12-11T17:29:27.235Z,17.00
2022-12-11T17:31:56.120Z,19.30
2022-12-11T17:34:24.725Z,19.03
2022-12-11T17:36:53.315Z,17.87
2022-12-11T17:39:21.959Z,18.13
2022-12-11T17:41:50.662Z,18.70
2022-12-11T17:44:19.304Z,18.10
2022-12-11T17:46:49.383Z,22.88
2022-12-11T17:49:18.075Z,20.00
2022-12-11T17:51:46.725Z,20.80
2022-12-11T17:54:15.342Z,18.73
2022-12-11T17:56:44.129Z,21.70
2022-12-11T17:59:12.905Z,18.23
2022-12-11T18:01:41.650Z,21.40
2022-12-11T18:04:11.801Z,20.50
2022-12-11T18:06:40.507Z,19.10
2022-12-11T18:09:10.259Z,19.03
2022-12-11T18:11:38.986Z,17.07
2022-12-11T18:14:10.057Z,19.30
2022-12-11T18:16:42.386Z,19.63
2022-12-11T18:19:13.876Z,19.10
2022-12-11T18:21:44.081Z,18.70
2022-12-11T18:24:12.920Z,17.27
2022-12-11T18:26:42.728Z,16.30
2022-12-11T18:29:11.795Z,16.57
2022-12-11T18:31:42.853Z,18.80
2022-12-11T18:34:13.099Z,17.70
2022-12-11T18:36:41.859Z,18.60
2022-12-11T18:39:10.464Z,17.50
2022-12-11T18:41:39.912Z,17.10
2022-12-11T18:44:10.093Z,19.60
2022-12-11T18:46:39.840Z,16.73
2022-12-11T18:49:08.677Z,18.20
2022-12-11T18:51:38.637Z,16.07
2022-12-11T18:54:07.258Z,14.40
2022-12-11T18:56:36.254Z,17.13
2022-12-11T18:59:05.014Z,16.40
2022-12-11T19:01:34.630Z,17.37
2022-12-11T19:04:07.847Z,17.27
2022-12-11T19:06:40.741Z,17.30
2022-12-11T19:09:10.141Z,18.80
2022-12-11T19:11:40.964Z,15.60
2022-12-11T19:14:10.134Z,17.20
2022-12-11T19:16:40.633Z,15.40
2022-12-11T19:19:12.468Z,16.80
2022-12-11T19:21:43.091Z,18.77
2022-12-11T19:24:14.892Z,18.70
2022-12-11T19:26:43.575Z,22.67
2022-12-11T19:29:20.155Z,20.13
2022-12-11T19:31:49.060Z,18.60
2022-12-11T19:34:18.126Z,19.07
2022-12-11T19:36:48.215Z,21.83
2022-12-11T19:39:17.507Z,20.60
2022-12-11T19:41:46.227Z,21.03
2022-12-11T19:44:14.974Z,19.50
2022-12-11T19:46:43.684Z,18.57
2022-12-11T19:49:13.202Z,18.00
2022-12-11T19:51:42.969Z,19.33
2022-12-11T19:54:16.070Z,17.70
2022-12-11T19:56:45.219Z,18.70
2022-12-11T19:59:15.693Z,18.07
2022-12-11T20:01:46.756Z,17.07
2022-12-11T20:04:17.548Z,18.43
2022-12-11T20:06:47.104Z,19.00
2022-12-11T20:09:18.197Z,16.53
2022-12-11T20:11:47.455Z,18.63
2022-12-11T20:14:21.490Z,17.37
2022-12-11T20:19:39.619Z,20.60
2022-12-11T20:22:09.022Z,20.60
2022-12-11T20:24:39.053Z,19.83
2022-12-11T20:27:07.802Z,19.70
2022-12-11T20:29:37.306Z,19.60
2022-12-11T20:32:07.304Z,20.50
2022-12-11T20:34:35.997Z,19.60
2022-12-11T20:37:04.629Z,20.37
2022-12-11T20:39:33.328Z,18.80
2022-12-11T20:42:04.841Z,18.83
2022-12-11T20:44:33.612Z,18.90
2022-12-11T20:47:02.312Z,19.93
2022-12-11T20:49:31.107Z,19.67
2022-12-11T20:52:00.575Z,19.37
2022-12-11T20:54:29.271Z,18.57
2022-12-11T20:56:58.217Z,19.17
2022-12-11T20:59:28.377Z,16.53
2022-12-11T21:01:57.179Z,19.13
2022-12-11T21:04:26.127Z,17.97
2022-12-11T21:07:01.155Z,18.13
2022-12-11T21:09:29.805Z,18.93
2022-12-11T21:12:00.687Z,19.10
2022-12-11T21:14:30.920Z,18.03
2022-12-11T21:17:00.258Z,19.57
2022-12-11T21:19:28.833Z,19.77
2022-12-11T21:21:58.260Z,19.70
2022-12-11T21:24:30.000Z,17.90
2022-12-11T21:26:59.457Z,17.87
2022-12-11T21:29:30.344Z,18.23
2022-12-11T21:31:59.625Z,18.57
2022-12-11T21:34:28.677Z,17.83
2022-12-11T21:36:57.606Z,17.80
2022-12-11T21:39:28.159Z,17.20
2022-12-11T21:41:58.078Z,20.20
2022-12-11T21:47:17.227Z,19.00
2022-12-11T21:49:45.935Z,15.63
2022-12-11T21:52:15.020Z,18.57
2022-12-11T21:54:43.604Z,16.77
2022-12-11T21:57:12.249Z,17.93
2022-12-11T21:59:40.806Z,15.77
2022-12-11T22:02:12.073Z,14.40
2022-12-11T22:04:42.250Z,15.70
2022-12-11T22:07:10.849Z,15.10
2022-12-11T22:09:39.463Z,18.00
2022-12-11T22:12:08.423Z,16.57
2022-12-11T22:14:37.104Z,14.80
2022-12-11T22:17:05.758Z,15.53
2022-12-11T22:19:34.382Z,13.77
2022-12-11T22:22:04.347Z,13.83
2022-12-11T22:24:32.976Z,16.23
2022-12-11T22:27:01.544Z,15.30
2022-12-11T22:29:30.160Z,14.63
2022-12-11T22:31:58.887Z,13.40
2022-12-11T22:34:27.624Z,14.67
2022-12-11T22:36:56.381Z,15.53
2022-12-11T22:39:26.339Z,17.87
2022-12-11T22:41:55.061Z,16.40
2022-12-11T22:44:23.675Z,16.60
2022-12-11T22:46:52.362Z,18.90
2022-12-11T22:49:21.196Z,17.73
2022-12-11T22:51:50.025Z,14.53
2022-12-11T22:54:18.684Z,14.87
2022-12-11T22:56:48.631Z,15.27
2022-12-11T22:59:17.187Z,14.93
2022-12-11T23:01:45.936Z,14.23
2022-12-11T23:04:14.656Z,14.30
2022-12-11T23:06:43.303Z,16.10
2022-12-11T23:09:12.289Z,15.67
2022-12-11T23:11:41.006Z,15.40
2022-12-11T23:14:14.814Z,13.50
2022-12-11T23:16:43.859Z,16.33
2022-12-11T23:19:13.048Z,16.40
2022-12-11T23:21:41.688Z,16.27
2022-12-11T23:24:10.771Z,17.67
2022-12-11T23:26:39.847Z,16.70
2022-12-11T23:29:08.760Z,16.10
2022-12-11T23:31:38.715Z,17.10
2022-12-11T23:34:07.326Z,17.37
2022-12-11T23:36:36.010Z,17.27
2022-12-11T23:39:05.367Z,17.20
2022-12-11T23:41:34.021Z,16.07
2022-12-11T23:44:02.916Z,16.67
2022-12-11T23:46:31.927Z,15.10
2022-12-11T23:49:01.888Z,16.83
2022-12-11T23:51:30.506Z,15.57
2022-12-11T23:53:59.072Z,16.40
2022-12-11T23:56:29.715Z,16.03
2022-12-11T23:58:58.928Z,17.70
